Terminal Aerodrome Forecast
Issued by NWS

Home | Current Version | Previous Version | Text Only | Print | Product List | Glossary On
Versions: 1 2 3 4 5 6 7 8 9 10 11 12 13 14 15 16 17
004
FTUS41 KGYX 231124
TAFRKD
TAF
KRKD 231124Z 2312/2412 00000KT 6SM -DZ BR OVC001
     FM231500 21006KT P6SM BKN003
     FM240000 17005KT P6SM BKN001
     FM240100 18005KT 4SM BR BKN001
     FM240300 18005KT 1/4SM FG BKN001
     FM240700 16005KT P6SM BKN001
      AMD LTD TO CLD VIS AND WIND=

USA.gov is the U.S. government's official web portal to all federal, state and local government web resources and services.